Grand Forks Air Force Base
KRDR : now visible

Airfield :











YOU CAN JOIN US ON...

 
LOGIN :

Register | Disclaimer

   EN    FR    IT 

 









Legend :    VFR   Marginal VFR   IFR   Intensive IFR   Very Intensive IFR
Visi :
Ceiling :
>= 8 km
>= 3000ft
5 to 8 km
1000 to 3000 ft
1500m to 5 km
500 to 1000 ft
800 to 1500m
200 to 500 ft
< 800m
< 200 ft
Symbols :   Thunderstorms  Fog  Heavy snow  Heavy precipitations  Wind > 20 kt






- Airport Elevation : 913 ft


KRDR - Grand Forks Air Force Base

CURRENT METAR :
  • 240856Z AUTO 34008KT 10SM SCT170 15/M00 A2995 RMK AO2 SLP145 T01511003 52011 $

EXPIRED METARs :
  • 240756Z AUTO 32008KT 10SM FEW095 BKN120 16/02 A2994 RMK AO2 SLP141 T01550020 $
  • 240656Z AUTO 33007KT 10SM OVC110 16/06 A2994 RMK AO2 SLP142 T01550057 $

TAF TAF KRDR
Valid from the 24 at 02:00 until the 25 at 08:00 UTC


240200Z 2402/2508 22009KT 9999 FEW120 SCT200 QNH2971INS
BECMG 2408/2409 33015KT 8000 -SHRA BKN080 OVC090 520103 QNH2986INS
BECMG 2414/2415 31012G20KT 9999 NSW SKC 510102 QNH2994INS
BECMG 2500/2501 30009KT 9999 FEW070 510102 QNH2993INS TX17/2421Z TN11/2413Z LAST NO AMDS AFT 2402 NEXT 2411
KZMP FIR / North America



MET'MAP, your aeronautical weather chart ! - Copyright ORBIFLY December 2007 - Disclaimer

ORBIFLY MET'MAP TEAM :

Programming & Development : Alexandra Zaïnal
Concept & original design : Baudouin d'Aumeries
Assistance for programming : Marc-Olivier Méhu
Technical & hardware support : Manuel Goepfert

Contact : metmap@orbifly.com




SOURCES & CREDITS :

   NOAA       Earth
Advisory